Saline, UT

4:14 AM MST on January 19, 2017 (GMT -0700)
MFREUT | | Change Station
Active Advisory: Winter Weather Advisory

Elev 4696 ft 41.15 °N, 112.33 °W | Updated 28 seconds ago

Overcast
Overcast
22.0 °F
Feels Like 11 °F
N
10.0
Wind Variable Wind from West
Gusts 13.0 mph

Today
High -- | Low -- °F
--% Chance of Precip.
Yesterday
High -- | Low -- °F
Precip. -- in
Pressure 29.79 in
Visibility 3.0 miles
Clouds Overcast 10000 ft
Windchill 11 °F
Dew Point 20 °F
Humidity 90%
Rainfall 0.00 in
Snow Depth Not available.
7:50 AM 5:30 PM
Waning Gibbous, 54% visible
SPECI KOGD 191109Z AUTO 27008KT 3SM BR OVC100 M06/M07 A2979 RMK AO2 T10561072
Pressure 29.79 in
Visibility 3.0 miles
Clouds Overcast 10000 ft
Windchill 11 °F
Dew Point 20 °F
Humidity 90%
Rainfall 0.00 in
Snow Depth Not available.
7:50 AM 5:30 PM
Waning Gibbous, 54% visible
SPECI KOGD 191109Z AUTO 27008KT 3SM BR OVC100 M06/M07 A2979 RMK AO2 T10561072

Get Your Daily Forecast Email!

Thanks for signing up!

Be on the lookout for a verification email in your inbox.

You'll start receiving the daily forecast at 8 AM.

×

10-Day Weather Forecast

Almanac

Astronomy

Jan. 19, 2017 Rise Set
Actual Time
Civil Twilight
Nautical Twilight
Astronomical Twilight
Moon
Length of Visible Light
Length of Day
Tomorrow will be .
, % of the Moon is Illuminated

Today's Extremes

State Highs State Lows

Community

WunderPhotos

Upload Photos

1,962,540 photos uploaded!

WunderBlog® & News

Nearby

Air Quality

  Air Quality AQ Index Pollutant
Not available.

Snow Depth

Station Depth Elevation

Earthquake Activity

City Distance Mag. Time & Date
Minimum magnitude displayed is 2.5.

Coastal Water Temperatures

Place Temperature

Stations

Nearby Weather Stations

Station Location Temp. Windchill Dew Point Humidity Wind Precip. Elev Updated Type
                   

Watches & Warnings

Winter Weather Advisory
Issued: 3:44 AM MST Jan. 19, 2017 – National Weather Service

... Winter Weather Advisory remains in effect until 11 PM MST this
evening...

* affected area... the Great Salt Lake Desert and mountains.

* Snow accumulations... an additional 2 to 4 inches.

* Timing... periods of snow will continue through the day tapering
off later this evening.

* Impacts... winter driving conditions will continue across area
routes including Interstate 80 across the Salt Flats and
Interstate 84 near the Idaho/Utah border.

Precautionary/preparedness actions...

A Winter Weather Advisory for snow means that snow accumulations
will cause primarily travel difficulties. Be prepared for snow
covered roads. Use caution while driving.

For winter Road conditions from the Utah Department of
Transportation... visit
http://www.Udottraffic.Utah.Gov/roadweatherforecast.Aspx or dial
511.